createdAt,value
2019-02-18T00:02:11.333Z,5.43
2019-02-18T00:04:56.664Z,5.77
2019-02-18T00:07:41.704Z,7.00
2019-02-18T00:10:26.971Z,5.73
2019-02-18T00:13:12.159Z,5.40
2019-02-18T00:15:57.492Z,5.23
2019-02-18T00:18:42.729Z,5.07
2019-02-18T00:21:27.721Z,5.63
2019-02-18T00:24:13.036Z,10.60
2019-02-18T00:26:58.133Z,6.63
2019-02-18T00:29:43.480Z,6.30
2019-02-18T00:32:28.593Z,5.40
2019-02-18T00:35:13.825Z,4.93
2019-02-18T00:37:59.124Z,5.70
2019-02-18T00:40:44.185Z,6.10
2019-02-18T00:43:29.617Z,5.73
2019-02-18T00:46:14.648Z,9.70
2019-02-18T00:48:59.777Z,4.73
2019-02-18T00:51:44.891Z,5.67
2019-02-18T00:54:30.559Z,4.37
2019-02-18T00:57:15.451Z,7.47
2019-02-18T01:00:00.755Z,7.03
2019-02-18T01:02:45.810Z,5.17
2019-02-18T01:05:31.025Z,5.10
2019-02-18T01:08:16.207Z,7.13
2019-02-18T01:11:01.437Z,5.07
2019-02-18T01:13:46.629Z,4.90
2019-02-18T01:16:31.887Z,7.47
2019-02-18T01:19:17.004Z,5.20
2019-02-18T01:22:02.357Z,5.87
2019-02-18T01:24:47.243Z,5.70
2019-02-18T01:27:32.711Z,4.77
2019-02-18T01:30:17.802Z,5.30
2019-02-18T01:33:03.071Z,7.40
2019-02-18T01:35:48.310Z,9.87
2019-02-18T01:38:33.256Z,6.83
2019-02-18T01:41:18.563Z,5.83
2019-02-18T01:44:03.831Z,4.87
2019-02-18T01:46:48.827Z,4.93
2019-02-18T01:49:34.068Z,5.17
2019-02-18T01:52:19.348Z,9.03
2019-02-18T01:55:05.208Z,5.70
2019-02-18T01:57:51.123Z,7.43
2019-02-18T02:00:36.638Z,5.07
2019-02-18T02:03:21.682Z,4.20
2019-02-18T02:06:07.000Z,5.13
2019-02-18T02:08:51.986Z,5.47
2019-02-18T02:11:37.267Z,6.60
2019-02-18T02:14:22.646Z,6.90
2019-02-18T02:17:07.663Z,4.23
2019-02-18T02:19:53.130Z,4.37
2019-02-18T02:22:38.308Z,7.17
2019-02-18T02:25:23.518Z,6.10
2019-02-18T02:28:08.616Z,4.33
2019-02-18T02:30:53.858Z,4.73
2019-02-18T02:33:39.983Z,4.93
2019-02-18T02:36:25.204Z,7.80
2019-02-18T02:39:10.657Z,5.33
2019-02-18T02:41:55.927Z,5.23
2019-02-18T02:44:40.866Z,5.63
2019-02-18T02:47:26.040Z,4.40
2019-02-18T02:50:11.965Z,6.53
2019-02-18T02:52:57.197Z,4.47
2019-02-18T02:55:42.511Z,4.87
2019-02-18T02:58:27.526Z,4.50
2019-02-18T03:01:12.675Z,5.23
2019-02-18T03:03:58.080Z,5.10
2019-02-18T03:06:43.340Z,5.60
2019-02-18T03:09:28.662Z,4.50
2019-02-18T03:12:13.886Z,4.00
2019-02-18T03:14:59.208Z,4.87
2019-02-18T03:17:44.495Z,4.87
2019-02-18T03:20:29.443Z,4.50
2019-02-18T03:23:14.652Z,4.40
2019-02-18T03:26:00.092Z,5.17
2019-02-18T03:29:04.451Z,4.70
2019-02-18T03:31:49.417Z,4.40
2019-02-18T03:34:36.372Z,4.33
2019-02-18T03:37:21.366Z,4.40
2019-02-18T03:40:06.762Z,4.27
2019-02-18T03:42:51.993Z,4.00
2019-02-18T03:45:37.102Z,4.63
2019-02-18T03:48:22.318Z,4.10
2019-02-18T03:51:07.607Z,4.37
2019-02-18T03:53:52.949Z,5.10
2019-02-18T03:56:38.210Z,4.10
2019-02-18T03:59:23.547Z,3.10
2019-02-18T04:02:08.610Z,4.27
2019-02-18T04:04:53.774Z,5.00
2019-02-18T04:07:38.990Z,3.93
2019-02-18T04:10:24.600Z,5.17
2019-02-18T04:13:10.409Z,3.90
2019-02-18T04:15:55.678Z,3.93
2019-02-18T04:18:40.796Z,3.90
2019-02-18T04:21:25.880Z,3.57
2019-02-18T04:24:11.190Z,3.67
2019-02-18T04:26:56.544Z,4.10
2019-02-18T04:29:41.553Z,4.07
2019-02-18T04:32:26.835Z,4.60
2019-02-18T04:35:12.082Z,3.70
2019-02-18T04:37:57.409Z,2.83
2019-02-18T04:40:42.449Z,3.40
2019-02-18T04:43:27.608Z,2.90
2019-02-18T04:46:12.853Z,3.87
2019-02-18T04:48:57.958Z,3.57
2019-02-18T04:51:43.416Z,4.07
2019-02-18T04:54:28.356Z,3.40
2019-02-18T04:57:13.414Z,3.03
2019-02-18T04:59:59.247Z,3.23
2019-02-18T05:02:44.519Z,3.17
2019-02-18T05:05:29.708Z,3.70
2019-02-18T05:08:14.866Z,3.60
2019-02-18T05:11:00.121Z,3.30
2019-02-18T05:13:46.034Z,3.60
2019-02-18T05:16:31.442Z,2.80
2019-02-18T05:19:16.676Z,3.40
2019-02-18T05:22:01.985Z,4.10
2019-02-18T05:24:47.458Z,3.57
2019-02-18T05:27:33.546Z,3.27
2019-02-18T05:30:19.008Z,2.43
2019-02-18T05:33:04.166Z,3.53
2019-02-18T05:35:49.535Z,3.80
2019-02-18T05:38:34.943Z,2.83
2019-02-18T05:41:20.095Z,3.20
2019-02-18T05:44:05.089Z,3.10
2019-02-18T05:46:50.385Z,3.97
2019-02-18T05:49:35.462Z,5.70
2019-02-18T05:52:20.957Z,4.17
2019-02-18T05:55:06.858Z,6.00
2019-02-18T05:57:51.707Z,3.00
2019-02-18T06:00:36.748Z,4.40
2019-02-18T06:03:21.973Z,4.00
2019-02-18T06:06:07.148Z,4.60
2019-02-18T06:08:52.376Z,3.50
2019-02-18T06:11:37.829Z,4.83
2019-02-18T06:14:22.964Z,5.03
2019-02-18T06:17:08.295Z,3.27
2019-02-18T06:19:53.458Z,3.83
2019-02-18T06:22:39.039Z,3.70
2019-02-18T06:25:24.453Z,2.63
2019-02-18T06:28:09.561Z,3.00
2019-02-18T06:30:55.050Z,5.10
2019-02-18T06:33:40.340Z,3.40
2019-02-18T06:36:25.612Z,3.17
2019-02-18T06:39:10.835Z,3.07
2019-02-18T06:41:55.963Z,3.27
2019-02-18T06:44:43.151Z,5.47
2019-02-18T06:47:28.537Z,3.10
2019-02-18T06:50:13.686Z,3.33
2019-02-18T06:52:58.856Z,3.60
2019-02-18T06:55:44.135Z,3.40
2019-02-18T06:58:31.461Z,2.80
2019-02-18T07:01:36.509Z,2.97
2019-02-18T07:04:23.571Z,2.80
2019-02-18T07:07:10.382Z,4.17
2019-02-18T07:10:00.258Z,3.00
2019-02-18T07:12:46.447Z,2.67
2019-02-18T07:15:31.549Z,6.83
2019-02-18T07:18:16.929Z,3.30
2019-02-18T07:21:02.199Z,3.77
2019-02-18T07:23:47.311Z,3.60
2019-02-18T07:26:32.449Z,3.97
2019-02-18T07:29:17.891Z,4.47
2019-02-18T07:32:03.042Z,18.43
2019-02-18T07:34:48.040Z,9.47
2019-02-18T07:37:33.451Z,12.37
2019-02-18T07:40:18.635Z,14.10
2019-02-18T07:43:04.002Z,24.13
2019-02-18T07:45:49.180Z,17.90
2019-02-18T07:48:36.639Z,13.33
2019-02-18T07:51:21.819Z,12.93
2019-02-18T07:54:06.755Z,13.90
2019-02-18T07:56:52.111Z,12.33
2019-02-18T07:59:37.389Z,21.37
2019-02-18T08:02:22.792Z,37.87
2019-02-18T08:05:07.842Z,27.43
2019-02-18T08:07:52.988Z,25.97
2019-02-18T08:10:38.407Z,30.97
2019-02-18T08:13:23.689Z,21.67
2019-02-18T08:16:08.750Z,35.33
2019-02-18T08:18:54.700Z,73.87
2019-02-18T08:21:39.761Z,84.93
2019-02-18T08:24:24.973Z,60.73
2019-02-18T08:27:10.338Z,68.13
2019-02-18T08:29:55.436Z,57.03
2019-02-18T08:32:40.728Z,63.63
2019-02-18T08:35:25.893Z,46.40
2019-02-18T08:38:10.953Z,42.00
2019-02-18T08:40:56.251Z,47.23
2019-02-18T08:43:41.479Z,50.40
2019-02-18T08:46:26.626Z,36.80
2019-02-18T08:49:11.847Z,34.63
2019-02-18T08:51:57.188Z,39.73
2019-02-18T08:54:42.454Z,38.70
2019-02-18T08:57:27.448Z,28.87
2019-02-18T09:00:15.161Z,34.73
2019-02-18T09:03:00.396Z,30.50
2019-02-18T09:05:45.829Z,24.73
2019-02-18T09:08:31.473Z,23.73
2019-02-18T09:11:16.746Z,21.73
2019-02-18T09:14:01.811Z,25.93
2019-02-18T09:16:47.447Z,21.53
2019-02-18T09:19:32.492Z,26.93
2019-02-18T09:22:25.264Z,25.93
2019-02-18T09:25:15.316Z,14.97
2019-02-18T09:28:00.695Z,17.23
2019-02-18T09:30:47.744Z,26.13
2019-02-18T09:33:33.813Z,19.73
2019-02-18T09:36:21.177Z,16.20
2019-02-18T09:39:16.981Z,16.73
2019-02-18T09:42:02.445Z,14.07
2019-02-18T09:44:47.786Z,14.10
2019-02-18T09:47:14.594Z,14.90
2019-02-18T09:49:41.375Z,15.43
2019-02-18T09:52:08.142Z,11.90
2019-02-18T09:54:34.831Z,11.67
2019-02-18T09:57:01.395Z,12.20
2019-02-18T09:59:46.676Z,18.60
2019-02-18T10:02:31.901Z,12.53
2019-02-18T10:05:17.124Z,12.80
2019-02-18T10:08:02.331Z,9.10
2019-02-18T10:10:55.297Z,10.33
2019-02-18T10:13:34.496Z,13.90
2019-02-18T10:16:19.661Z,10.30
2019-02-18T10:19:04.869Z,13.60
2019-02-18T10:21:49.937Z,10.50
2019-02-18T10:24:35.049Z,10.30
2019-02-18T10:27:20.828Z,9.50
2019-02-18T10:30:08.844Z,6.90
2019-02-18T10:32:54.029Z,8.60
2019-02-18T10:35:39.451Z,9.37
2019-02-18T10:38:24.276Z,10.60
2019-02-18T10:41:09.660Z,8.80
2019-02-18T10:43:54.978Z,6.40
2019-02-18T10:46:40.656Z,6.70
2019-02-18T10:49:26.189Z,5.93
2019-02-18T10:52:11.541Z,7.77
2019-02-18T10:54:56.523Z,7.17
2019-02-18T10:57:41.737Z,7.60
2019-02-18T11:00:27.971Z,7.67
2019-02-18T11:02:54.664Z,7.03
2019-02-18T11:05:39.641Z,8.20
2019-02-18T11:08:24.642Z,7.70
2019-02-18T11:11:16.743Z,9.07
2019-02-18T11:13:57.242Z,7.93
2019-02-18T11:16:42.431Z,7.43
2019-02-18T11:19:27.758Z,5.97
2019-02-18T11:22:12.759Z,9.90
2019-02-18T11:24:57.885Z,14.13
2019-02-18T11:27:43.703Z,7.93
2019-02-18T11:30:29.442Z,7.87
2019-02-18T11:33:14.643Z,6.10
2019-02-18T11:35:59.904Z,11.53
2019-02-18T11:38:44.934Z,6.60
2019-02-18T11:41:30.036Z,7.23
2019-02-18T11:44:15.719Z,5.07
2019-02-18T11:47:01.239Z,5.37
2019-02-18T11:49:46.517Z,8.50
2019-02-18T11:52:32.099Z,9.30
2019-02-18T11:55:17.287Z,6.07
2019-02-18T11:58:02.953Z,6.60
2019-02-18T12:00:48.314Z,5.47
2019-02-18T12:03:33.231Z,5.70
2019-02-18T12:06:18.795Z,5.47
2019-02-18T12:09:05.354Z,5.87
2019-02-18T12:11:50.811Z,5.63
2019-02-18T12:14:36.097Z,6.93
2019-02-18T12:17:21.293Z,6.57
2019-02-18T12:20:09.746Z,7.37
2019-02-18T12:22:54.559Z,5.17
2019-02-18T12:25:39.911Z,6.47
2019-02-18T12:28:25.587Z,5.30
2019-02-18T12:31:10.735Z,6.00
2019-02-18T12:33:56.760Z,6.43
2019-02-18T12:36:42.108Z,6.97
2019-02-18T12:39:27.916Z,6.30
2019-02-18T12:42:12.920Z,7.87
2019-02-18T12:44:58.187Z,4.80
2019-02-18T12:47:43.675Z,8.93
2019-02-18T12:50:28.957Z,5.53
2019-02-18T12:53:14.456Z,8.80
2019-02-18T12:55:59.609Z,6.20
2019-02-18T12:58:54.259Z,4.90
2019-02-18T13:01:32.388Z,8.53
2019-02-18T13:03:59.139Z,7.13
2019-02-18T13:06:44.505Z,6.73
2019-02-18T13:09:30.060Z,5.53
2019-02-18T13:12:15.277Z,5.07
2019-02-18T13:15:00.352Z,7.00
2019-02-18T13:17:46.111Z,4.93
2019-02-18T13:20:31.406Z,5.37
2019-02-18T13:23:16.453Z,7.40
2019-02-18T13:26:01.789Z,10.40
2019-02-18T13:28:47.345Z,4.33
2019-02-18T13:31:34.334Z,6.93
2019-02-18T13:34:19.623Z,9.90
2019-02-18T13:37:04.877Z,5.50
2019-02-18T13:39:50.786Z,5.30
2019-02-18T13:42:35.629Z,6.30
2019-02-18T13:45:20.989Z,5.00
2019-02-18T13:48:06.160Z,7.13
2019-02-18T13:50:51.452Z,7.03
2019-02-18T13:53:36.716Z,5.33
2019-02-18T13:56:21.936Z,4.77
2019-02-18T13:59:07.539Z,4.13
2019-02-18T14:01:52.963Z,9.77
2019-02-18T14:04:38.178Z,5.10
2019-02-18T14:07:23.426Z,5.73
2019-02-18T14:10:09.398Z,7.27
2019-02-18T14:12:54.995Z,10.97
2019-02-18T14:15:40.287Z,5.37
2019-02-18T14:18:25.530Z,5.30
2019-02-18T14:21:10.854Z,5.73
2019-02-18T14:23:55.806Z,9.67
2019-02-18T14:26:41.285Z,6.50
2019-02-18T14:29:26.448Z,8.83
2019-02-18T14:32:12.210Z,4.40
2019-02-18T14:34:57.590Z,7.80
2019-02-18T14:37:42.902Z,9.60
2019-02-18T14:40:29.178Z,7.80
2019-02-18T14:43:14.289Z,11.60
2019-02-18T14:45:59.407Z,8.30
2019-02-18T14:48:44.720Z,5.23
2019-02-18T14:51:29.866Z,6.50
2019-02-18T14:54:16.324Z,5.30
2019-02-18T14:57:02.013Z,4.30
2019-02-18T14:59:47.200Z,5.07
2019-02-18T15:02:32.409Z,4.50
2019-02-18T15:05:17.521Z,4.53
2019-02-18T15:08:03.857Z,4.30
2019-02-18T15:10:48.851Z,3.70
2019-02-18T15:13:34.161Z,6.57
2019-02-18T15:16:19.388Z,5.50
2019-02-18T15:19:04.658Z,5.63
2019-02-18T15:21:50.037Z,6.47
2019-02-18T15:24:35.122Z,5.00
2019-02-18T15:27:20.480Z,14.83
2019-02-18T15:30:13.303Z,6.47
2019-02-18T15:32:58.705Z,8.40
2019-02-18T15:35:43.435Z,8.70
2019-02-18T15:38:28.502Z,8.53
2019-02-18T15:41:14.456Z,7.67
2019-02-18T15:43:59.720Z,10.73
2019-02-18T15:46:46.239Z,7.00
2019-02-18T15:49:31.747Z,10.47
2019-02-18T15:52:17.158Z,9.17
2019-02-18T15:55:04.669Z,19.50
2019-02-18T15:57:50.182Z,24.30
2019-02-18T16:00:35.268Z,27.87
2019-02-18T16:03:20.288Z,15.20
2019-02-18T16:06:05.694Z,19.60
2019-02-18T16:08:51.162Z,12.00
2019-02-18T16:11:36.670Z,19.13
2019-02-18T16:14:21.799Z,14.90
2019-02-18T16:17:07.040Z,13.03
2019-02-18T16:19:52.685Z,8.70
2019-02-18T16:22:38.855Z,11.53
2019-02-18T16:25:24.130Z,9.13
2019-02-18T16:28:09.288Z,11.97
2019-02-18T16:30:54.469Z,8.07
2019-02-18T16:33:39.760Z,6.60
2019-02-18T16:36:24.908Z,8.50
2019-02-18T16:39:10.881Z,8.53
2019-02-18T16:41:56.222Z,13.10
2019-02-18T16:44:41.277Z,18.47
2019-02-18T16:47:26.312Z,14.50
2019-02-18T16:50:12.202Z,16.33
2019-02-18T16:52:57.234Z,20.13
2019-02-18T16:55:42.489Z,16.13
2019-02-18T16:58:27.718Z,26.53
2019-02-18T17:01:12.977Z,14.47
2019-02-18T17:03:39.767Z,28.17
2019-02-18T17:06:24.993Z,16.30
2019-02-18T17:09:11.076Z,15.33
2019-02-18T17:11:56.833Z,13.27
2019-02-18T17:14:41.974Z,18.80
2019-02-18T17:17:27.282Z,15.67
2019-02-18T17:20:12.874Z,16.67
2019-02-18T17:22:58.208Z,11.17
2019-02-18T17:25:44.386Z,12.03
2019-02-18T17:28:29.619Z,10.27
2019-02-18T17:31:14.778Z,18.33
2019-02-18T17:34:00.142Z,19.10
2019-02-18T17:36:45.174Z,13.13
2019-02-18T17:39:30.720Z,13.03
2019-02-18T17:42:15.714Z,13.73
2019-02-18T17:45:01.078Z,11.77
2019-02-18T17:47:46.247Z,14.27
2019-02-18T17:50:31.437Z,12.77
2019-02-18T17:53:16.497Z,12.17
2019-02-18T17:56:01.969Z,12.50
2019-02-18T17:58:47.093Z,11.30
2019-02-18T18:01:32.261Z,13.80
2019-02-18T18:04:17.565Z,10.67
2019-02-18T18:07:02.695Z,13.40
2019-02-18T18:09:47.937Z,9.40
2019-02-18T18:12:33.186Z,15.30
2019-02-18T18:15:19.480Z,8.93
2019-02-18T18:18:04.958Z,11.40
2019-02-18T18:20:50.017Z,10.20
2019-02-18T18:23:35.236Z,9.90
2019-02-18T18:26:20.355Z,10.70
2019-02-18T18:29:05.734Z,7.73
2019-02-18T18:31:50.909Z,12.70
2019-02-18T18:34:36.218Z,13.17
2019-02-18T18:37:21.386Z,16.77
2019-02-18T18:40:16.202Z,10.73
2019-02-18T18:43:01.697Z,6.80
2019-02-18T18:45:47.350Z,13.00
2019-02-18T18:48:32.497Z,7.50
2019-02-18T19:11:33.648Z,6.83
2019-02-18T19:14:18.871Z,10.73
2019-02-18T19:17:04.112Z,14.23
2019-02-18T19:19:49.012Z,23.80
2019-02-18T19:22:34.391Z,24.33
2019-02-18T19:25:19.635Z,18.57
2019-02-18T19:28:04.743Z,23.43
2019-02-18T19:30:50.063Z,22.03
2019-02-18T19:33:35.484Z,20.47
2019-02-18T19:36:20.873Z,24.03
2019-02-18T19:39:06.750Z,22.23
2019-02-18T19:41:52.152Z,22.33
2019-02-18T19:44:37.375Z,24.43
2019-02-18T19:47:22.495Z,20.47
2019-02-18T19:50:07.777Z,24.93
2019-02-18T19:52:53.222Z,25.70
2019-02-18T19:55:38.306Z,22.37
2019-02-18T19:58:23.633Z,23.17
2019-02-18T20:01:08.814Z,20.30
2019-02-18T20:03:54.366Z,22.73
2019-02-18T20:06:39.507Z,21.50
2019-02-18T20:09:24.610Z,21.77
2019-02-18T20:12:10.397Z,19.27
2019-02-18T20:14:56.059Z,15.63
2019-02-18T20:17:41.741Z,16.87
2019-02-18T20:20:26.821Z,14.63
2019-02-18T20:23:12.027Z,20.70
2019-02-18T20:25:57.188Z,18.03
2019-02-18T20:28:42.288Z,16.50
2019-02-18T20:31:28.785Z,14.10
2019-02-18T20:34:14.156Z,12.37
2019-02-18T20:36:59.365Z,20.73
2019-02-18T20:39:44.347Z,14.57
2019-02-18T20:42:29.463Z,16.10
2019-02-18T20:45:15.226Z,16.87
2019-02-18T20:48:00.239Z,17.50
2019-02-18T20:50:45.638Z,12.60
2019-02-18T20:53:30.772Z,13.10
2019-02-18T20:56:15.800Z,12.80
2019-02-18T20:59:01.438Z,16.57
2019-02-18T21:01:46.495Z,19.63
2019-02-18T21:04:31.629Z,14.90
2019-02-18T21:07:16.864Z,13.20
2019-02-18T21:10:01.864Z,10.93
2019-02-18T21:12:47.511Z,15.50
2019-02-18T21:15:32.677Z,13.47
2019-02-18T21:18:17.837Z,18.40
2019-02-18T21:21:02.802Z,16.43
2019-02-18T21:23:48.041Z,12.07
2019-02-18T21:26:33.302Z,12.00
2019-02-18T21:29:18.539Z,12.97
2019-02-18T21:32:03.681Z,11.93
2019-02-18T21:34:49.874Z,11.90
2019-02-18T21:37:34.913Z,10.07
2019-02-18T21:40:20.983Z,26.30
2019-02-18T21:43:05.962Z,12.77
2019-02-18T21:45:51.070Z,8.53
2019-02-18T21:48:36.019Z,9.60
2019-02-18T21:51:21.198Z,11.63
2019-02-18T21:54:06.290Z,9.90
2019-02-18T21:56:51.448Z,13.00
2019-02-18T21:59:36.496Z,14.20
2019-02-18T22:02:23.322Z,9.80
2019-02-18T22:05:08.255Z,11.43
2019-02-18T22:07:53.286Z,10.77
2019-02-18T22:10:38.443Z,7.93
2019-02-18T22:13:23.407Z,8.63
2019-02-18T22:16:08.701Z,10.97
2019-02-18T22:18:53.793Z,7.37
2019-02-18T22:21:40.070Z,7.80
2019-02-18T22:24:25.065Z,12.17
2019-02-18T22:27:10.449Z,9.60
2019-02-18T22:29:55.458Z,7.50
2019-02-18T22:32:40.551Z,12.20
2019-02-18T22:35:25.778Z,8.27
2019-02-18T22:38:10.866Z,9.37
2019-02-18T22:40:56.025Z,10.73
2019-02-18T22:43:41.099Z,9.43
2019-02-18T22:46:26.191Z,9.23
2019-02-18T22:49:11.287Z,10.10
2019-02-18T22:51:56.555Z,6.73
2019-02-18T22:54:41.583Z,6.93
2019-02-18T22:57:26.774Z,5.07
2019-02-18T23:00:26.818Z,7.10
2019-02-18T23:03:12.207Z,7.00
2019-02-18T23:05:56.998Z,7.90
2019-02-18T23:08:42.110Z,8.20
2019-02-18T23:11:27.160Z,7.47
2019-02-18T23:14:12.381Z,6.57
2019-02-18T23:16:57.578Z,7.60
2019-02-18T23:19:42.692Z,6.30
2019-02-18T23:22:27.786Z,7.13
2019-02-18T23:25:12.800Z,6.93
2019-02-18T23:27:58.148Z,5.37
2019-02-18T23:30:43.128Z,7.80
2019-02-18T23:33:28.510Z,8.23
2019-02-18T23:36:14.485Z,8.70
2019-02-18T23:38:59.210Z,8.50
2019-02-18T23:41:44.167Z,7.07
2019-02-18T23:44:29.402Z,9.80
2019-02-18T23:47:14.500Z,11.30
2019-02-18T23:49:59.753Z,6.80
2019-02-18T23:52:44.624Z,7.10
2019-02-18T23:55:29.980Z,10.17
2019-02-18T23:58:14.968Z,7.60
